sensor_id;sensor_type;location;lat;lon;timestamp;P1;durP1;ratioP1;P2;durP2;ratioP2
78148;SDS011;67396;42.664;23.382;2023-10-31T00:01:58;10.63;;;4.60;;
78148;SDS011;67396;42.664;23.382;2023-10-31T00:04:24;17.60;;;9.80;;
78148;SDS011;67396;42.664;23.382;2023-10-31T00:06:49;32.28;;;15.80;;
78148;SDS011;67396;42.664;23.382;2023-10-31T00:09:16;32.58;;;16.35;;
78148;SDS011;67396;42.664;23.382;2023-10-31T00:11:42;35.15;;;18.50;;
78148;SDS011;67396;42.664;23.382;2023-10-31T00:14:09;22.13;;;10.95;;
78148;SDS011;67396;42.664;23.382;2023-10-31T00:16:34;22.95;;;11.88;;
78148;SDS011;67396;42.664;23.382;2023-10-31T00:19:00;17.05;;;9.55;;
78148;SDS011;67396;42.664;23.382;2023-10-31T00:21:25;11.35;;;6.25;;
78148;SDS011;67396;42.664;23.382;2023-10-31T00:23:51;15.02;;;5.22;;
78148;SDS011;67396;42.664;23.382;2023-10-31T00:26:16;13.10;;;5.75;;
78148;SDS011;67396;42.664;23.382;2023-10-31T00:28:41;11.57;;;5.82;;
78148;SDS011;67396;42.664;23.382;2023-10-31T00:31:07;12.82;;;5.75;;
78148;SDS011;67396;42.664;23.382;2023-10-31T00:33:34;13.38;;;6.43;;
78148;SDS011;67396;42.664;23.382;2023-10-31T00:35:59;22.92;;;7.07;;
78148;SDS011;67396;42.664;23.382;2023-10-31T00:38:25;8.60;;;5.07;;
78148;SDS011;67396;42.664;23.382;2023-10-31T00:40:50;18.60;;;5.97;;
78148;SDS011;67396;42.664;23.382;2023-10-31T00:43:16;13.23;;;5.75;;
78148;SDS011;67396;42.664;23.382;2023-10-31T00:45:41;21.83;;;8.00;;
78148;SDS011;67396;42.664;23.382;2023-10-31T00:48:06;17.13;;;5.85;;
78148;SDS011;67396;42.664;23.382;2023-10-31T00:50:32;15.70;;;6.60;;
78148;SDS011;67396;42.664;23.382;2023-10-31T00:52:57;14.73;;;6.18;;
78148;SDS011;67396;42.664;23.382;2023-10-31T00:55:23;14.32;;;5.43;;
78148;SDS011;67396;42.664;23.382;2023-10-31T00:57:48;14.23;;;5.47;;
78148;SDS011;67396;42.664;23.382;2023-10-31T01:00:14;13.55;;;4.95;;
78148;SDS011;67396;42.664;23.382;2023-10-31T01:02:39;12.55;;;5.32;;
78148;SDS011;67396;42.664;23.382;2023-10-31T01:05:05;10.38;;;4.47;;
78148;SDS011;67396;42.664;23.382;2023-10-31T01:07:31;10.85;;;5.32;;
78148;SDS011;67396;42.664;23.382;2023-10-31T01:09:57;10.10;;;4.50;;
78148;SDS011;67396;42.664;23.382;2023-10-31T01:12:22;8.10;;;4.93;;
78148;SDS011;67396;42.664;23.382;2023-10-31T01:14:48;5.97;;;3.50;;
78148;SDS011;67396;42.664;23.382;2023-10-31T01:17:13;7.65;;;4.38;;
78148;SDS011;67396;42.664;23.382;2023-10-31T01:19:38;7.55;;;3.85;;
78148;SDS011;67396;42.664;23.382;2023-10-31T01:22:04;9.25;;;3.88;;
78148;SDS011;67396;42.664;23.382;2023-10-31T01:24:29;7.35;;;3.70;;
78148;SDS011;67396;42.664;23.382;2023-10-31T01:26:55;13.80;;;5.07;;
78148;SDS011;67396;42.664;23.382;2023-10-31T01:29:20;9.50;;;4.95;;
78148;SDS011;67396;42.664;23.382;2023-10-31T01:31:46;5.90;;;3.85;;
78148;SDS011;67396;42.664;23.382;2023-10-31T01:34:11;6.60;;;2.85;;
78148;SDS011;67396;42.664;23.382;2023-10-31T01:36:36;9.15;;;4.28;;
78148;SDS011;67396;42.664;23.382;2023-10-31T01:39:02;9.00;;;4.07;;
78148;SDS011;67396;42.664;23.382;2023-10-31T01:41:27;10.43;;;3.85;;
78148;SDS011;67396;42.664;23.382;2023-10-31T01:43:53;5.40;;;3.35;;
78148;SDS011;67396;42.664;23.382;2023-10-31T01:46:18;9.68;;;4.15;;
78148;SDS011;67396;42.664;23.382;2023-10-31T01:48:44;7.70;;;4.10;;
78148;SDS011;67396;42.664;23.382;2023-10-31T01:51:09;9.43;;;3.67;;
78148;SDS011;67396;42.664;23.382;2023-10-31T01:53:35;7.72;;;3.63;;
78148;SDS011;67396;42.664;23.382;2023-10-31T01:56:03;7.07;;;4.10;;
78148;SDS011;67396;42.664;23.382;2023-10-31T01:58:31;6.93;;;3.63;;
78148;SDS011;67396;42.664;23.382;2023-10-31T02:00:59;9.00;;;4.65;;
78148;SDS011;67396;42.664;23.382;2023-10-31T02:03:26;6.55;;;3.20;;
78148;SDS011;67396;42.664;23.382;2023-10-31T02:05:52;7.80;;;3.90;;
78148;SDS011;67396;42.664;23.382;2023-10-31T02:08:18;6.20;;;3.88;;
78148;SDS011;67396;42.664;23.382;2023-10-31T02:10:44;10.77;;;4.50;;
78148;SDS011;67396;42.664;23.382;2023-10-31T02:13:12;8.32;;;3.60;;
78148;SDS011;67396;42.664;23.382;2023-10-31T02:15:39;7.78;;;3.58;;
78148;SDS011;67396;42.664;23.382;2023-10-31T02:18:05;5.22;;;3.67;;
78148;SDS011;67396;42.664;23.382;2023-10-31T02:20:32;7.78;;;3.42;;
78148;SDS011;67396;42.664;23.382;2023-10-31T02:22:58;5.55;;;3.65;;
78148;SDS011;67396;42.664;23.382;2023-10-31T02:25:24;6.25;;;3.50;;
78148;SDS011;67396;42.664;23.382;2023-10-31T02:27:49;6.95;;;3.60;;
78148;SDS011;67396;42.664;23.382;2023-10-31T02:30:15;7.70;;;3.50;;
78148;SDS011;67396;42.664;23.382;2023-10-31T02:32:40;6.72;;;3.20;;
78148;SDS011;67396;42.664;23.382;2023-10-31T02:35:06;6.68;;;3.53;;
78148;SDS011;67396;42.664;23.382;2023-10-31T02:37:32;7.93;;;3.60;;
78148;SDS011;67396;42.664;23.382;2023-10-31T02:39:58;4.00;;;2.97;;
78148;SDS011;67396;42.664;23.382;2023-10-31T02:42:24;6.60;;;3.20;;
78148;SDS011;67396;42.664;23.382;2023-10-31T02:44:50;5.53;;;3.17;;
78148;SDS011;67396;42.664;23.382;2023-10-31T02:47:15;6.85;;;3.63;;
78148;SDS011;67396;42.664;23.382;2023-10-31T02:49:41;8.43;;;3.33;;
78148;SDS011;67396;42.664;23.382;2023-10-31T02:52:06;4.40;;;3.25;;
78148;SDS011;67396;42.664;23.382;2023-10-31T02:54:32;7.93;;;3.88;;
78148;SDS011;67396;42.664;23.382;2023-10-31T02:56:57;6.50;;;3.47;;
78148;SDS011;67396;42.664;23.382;2023-10-31T02:59:23;7.40;;;3.58;;
78148;SDS011;67396;42.664;23.382;2023-10-31T03:01:48;7.82;;;3.33;;
78148;SDS011;67396;42.664;23.382;2023-10-31T03:04:14;5.22;;;3.40;;
78148;SDS011;67396;42.664;23.382;2023-10-31T03:06:39;7.80;;;3.47;;
78148;SDS011;67396;42.664;23.382;2023-10-31T03:09:06;7.90;;;3.38;;
78148;SDS011;67396;42.664;23.382;2023-10-31T03:11:32;6.55;;;3.40;;
78148;SDS011;67396;42.664;23.382;2023-10-31T03:13:57;6.85;;;3.72;;
78148;SDS011;67396;42.664;23.382;2023-10-31T03:16:23;6.38;;;4.18;;
78148;SDS011;67396;42.664;23.382;2023-10-31T03:18:49;5.78;;;3.83;;
78148;SDS011;67396;42.664;23.382;2023-10-31T03:21:14;8.38;;;4.00;;
78148;SDS011;67396;42.664;23.382;2023-10-31T03:23:44;6.47;;;3.53;;
78148;SDS011;67396;42.664;23.382;2023-10-31T03:26:12;8.13;;;4.00;;
78148;SDS011;67396;42.664;23.382;2023-10-31T03:28:37;8.40;;;3.67;;
78148;SDS011;67396;42.664;23.382;2023-10-31T03:31:03;9.32;;;3.70;;
78148;SDS011;67396;42.664;23.382;2023-10-31T03:33:29;5.32;;;4.07;;
78148;SDS011;67396;42.664;23.382;2023-10-31T03:35:54;10.50;;;4.10;;
78148;SDS011;67396;42.664;23.382;2023-10-31T03:38:20;9.13;;;4.10;;
78148;SDS011;67396;42.664;23.382;2023-10-31T03:40:45;6.70;;;3.45;;
78148;SDS011;67396;42.664;23.382;2023-10-31T03:43:11;8.73;;;4.47;;
78148;SDS011;67396;42.664;23.382;2023-10-31T03:45:36;9.40;;;3.90;;
78148;SDS011;67396;42.664;23.382;2023-10-31T03:48:02;6.22;;;3.45;;
78148;SDS011;67396;42.664;23.382;2023-10-31T03:50:27;3.40;;;2.08;;
78148;SDS011;67396;42.664;23.382;2023-10-31T03:52:53;11.93;;;4.32;;
78148;SDS011;67396;42.664;23.382;2023-10-31T03:55:18;6.28;;;3.50;;
78148;SDS011;67396;42.664;23.382;2023-10-31T03:57:44;8.82;;;3.60;;
78148;SDS011;67396;42.664;23.382;2023-10-31T04:00:09;8.40;;;4.50;;
78148;SDS011;67396;42.664;23.382;2023-10-31T04:02:36;9.30;;;4.43;;
78148;SDS011;67396;42.664;23.382;2023-10-31T04:05:05;4.90;;;3.25;;
78148;SDS011;67396;42.664;23.382;2023-10-31T04:07:32;9.65;;;3.90;;
78148;SDS011;67396;42.664;23.382;2023-10-31T04:09:57;7.60;;;3.92;;
78148;SDS011;67396;42.664;23.382;2023-10-31T04:12:23;5.63;;;3.40;;
78148;SDS011;67396;42.664;23.382;2023-10-31T04:14:48;4.55;;;3.42;;
78148;SDS011;67396;42.664;23.382;2023-10-31T04:17:13;7.10;;;3.17;;
78148;SDS011;67396;42.664;23.382;2023-10-31T04:19:39;5.85;;;3.35;;
78148;SDS011;67396;42.664;23.382;2023-10-31T04:22:05;9.57;;;4.30;;
78148;SDS011;67396;42.664;23.382;2023-10-31T04:24:30;9.35;;;3.65;;
78148;SDS011;67396;42.664;23.382;2023-10-31T04:26:56;7.10;;;3.20;;
78148;SDS011;67396;42.664;23.382;2023-10-31T04:29:22;5.70;;;3.85;;
78148;SDS011;67396;42.664;23.382;2023-10-31T04:31:48;6.25;;;3.30;;
78148;SDS011;67396;42.664;23.382;2023-10-31T04:34:13;9.13;;;3.55;;
78148;SDS011;67396;42.664;23.382;2023-10-31T04:36:39;7.38;;;3.60;;
78148;SDS011;67396;42.664;23.382;2023-10-31T04:39:05;6.25;;;3.90;;
78148;SDS011;67396;42.664;23.382;2023-10-31T04:41:31;5.10;;;2.72;;
78148;SDS011;67396;42.664;23.382;2023-10-31T04:43:56;9.43;;;4.18;;
78148;SDS011;67396;42.664;23.382;2023-10-31T04:46:22;4.85;;;3.42;;
78148;SDS011;67396;42.664;23.382;2023-10-31T04:48:47;7.75;;;4.53;;
78148;SDS011;67396;42.664;23.382;2023-10-31T04:51:13;8.70;;;4.40;;
78148;SDS011;67396;42.664;23.382;2023-10-31T04:53:38;13.25;;;4.13;;
78148;SDS011;67396;42.664;23.382;2023-10-31T04:56:04;7.85;;;4.70;;
78148;SDS011;67396;42.664;23.382;2023-10-31T04:58:29;9.93;;;4.68;;
78148;SDS011;67396;42.664;23.382;2023-10-31T05:00:55;8.50;;;4.85;;
78148;SDS011;67396;42.664;23.382;2023-10-31T05:03:20;23.98;;;7.13;;
78148;SDS011;67396;42.664;23.382;2023-10-31T05:05:46;8.85;;;4.88;;
78148;SDS011;67396;42.664;23.382;2023-10-31T05:08:11;15.02;;;5.38;;
78148;SDS011;67396;42.664;23.382;2023-10-31T05:10:37;11.45;;;5.60;;
78148;SDS011;67396;42.664;23.382;2023-10-31T05:13:02;12.10;;;4.93;;
78148;SDS011;67396;42.664;23.382;2023-10-31T05:15:28;31.85;;;6.68;;
78148;SDS011;67396;42.664;23.382;2023-10-31T05:17:53;16.30;;;4.72;;
78148;SDS011;67396;42.664;23.382;2023-10-31T05:20:19;10.63;;;5.78;;
78148;SDS011;67396;42.664;23.382;2023-10-31T05:22:46;9.60;;;4.38;;
78148;SDS011;67396;42.664;23.382;2023-10-31T05:25:11;11.82;;;5.78;;
78148;SDS011;67396;42.664;23.382;2023-10-31T05:27:37;10.57;;;4.68;;
78148;SDS011;67396;42.664;23.382;2023-10-31T05:30:04;8.43;;;4.60;;
78148;SDS011;67396;42.664;23.382;2023-10-31T05:32:29;17.00;;;6.05;;
78148;SDS011;67396;42.664;23.382;2023-10-31T05:34:55;12.85;;;5.05;;
78148;SDS011;67396;42.664;23.382;2023-10-31T05:37:21;10.90;;;4.75;;
78148;SDS011;67396;42.664;23.382;2023-10-31T05:39:47;9.85;;;4.05;;
78148;SDS011;67396;42.664;23.382;2023-10-31T05:42:12;12.70;;;4.40;;
78148;SDS011;67396;42.664;23.382;2023-10-31T05:44:38;12.57;;;5.40;;
78148;SDS011;67396;42.664;23.382;2023-10-31T05:47:04;15.13;;;6.75;;
78148;SDS011;67396;42.664;23.382;2023-10-31T05:49:29;31.50;;;8.52;;
78148;SDS011;67396;42.664;23.382;2023-10-31T05:51:55;39.70;;;9.63;;
78148;SDS011;67396;42.664;23.382;2023-10-31T05:54:20;58.58;;;16.55;;
78148;SDS011;67396;42.664;23.382;2023-10-31T05:56:46;13.35;;;6.65;;
78148;SDS011;67396;42.664;23.382;2023-10-31T05:59:11;17.02;;;6.13;;
78148;SDS011;67396;42.664;23.382;2023-10-31T06:01:37;13.30;;;4.93;;
78148;SDS011;67396;42.664;23.382;2023-10-31T06:04:03;15.05;;;7.72;;
78148;SDS011;67396;42.664;23.382;2023-10-31T06:06:29;27.58;;;17.33;;
78148;SDS011;67396;42.664;23.382;2023-10-31T06:08:57;31.10;;;15.77;;
78148;SDS011;67396;42.664;23.382;2023-10-31T06:11:22;31.00;;;15.38;;
78148;SDS011;67396;42.664;23.382;2023-10-31T06:13:48;26.05;;;15.18;;
78148;SDS011;67396;42.664;23.382;2023-10-31T06:16:13;29.77;;;15.35;;
78148;SDS011;67396;42.664;23.382;2023-10-31T06:18:39;48.53;;;26.50;;
78148;SDS011;67396;42.664;23.382;2023-10-31T06:21:05;26.58;;;16.67;;
78148;SDS011;67396;42.664;23.382;2023-10-31T06:23:31;41.75;;;19.52;;
78148;SDS011;67396;42.664;23.382;2023-10-31T06:25:56;33.40;;;18.88;;
78148;SDS011;67396;42.664;23.382;2023-10-31T06:28:22;33.60;;;18.08;;
78148;SDS011;67396;42.664;23.382;2023-10-31T06:30:48;34.15;;;15.10;;
78148;SDS011;67396;42.664;23.382;2023-10-31T06:33:13;25.65;;;11.52;;
78148;SDS011;67396;42.664;23.382;2023-10-31T06:35:38;24.02;;;12.80;;
78148;SDS011;67396;42.664;23.382;2023-10-31T06:38:04;28.40;;;12.52;;
78148;SDS011;67396;42.664;23.382;2023-10-31T06:40:29;33.88;;;14.35;;
78148;SDS011;67396;42.664;23.382;2023-10-31T06:42:55;27.40;;;14.10;;
78148;SDS011;67396;42.664;23.382;2023-10-31T06:45:20;27.27;;;13.25;;
78148;SDS011;67396;42.664;23.382;2023-10-31T06:47:46;24.52;;;10.32;;
78148;SDS011;67396;42.664;23.382;2023-10-31T06:50:11;19.83;;;10.13;;
78148;SDS011;67396;42.664;23.382;2023-10-31T06:52:37;17.75;;;9.23;;
78148;SDS011;67396;42.664;23.382;2023-10-31T06:55:02;16.75;;;8.90;;
78148;SDS011;67396;42.664;23.382;2023-10-31T06:57:28;21.20;;;9.45;;
78148;SDS011;67396;42.664;23.382;2023-10-31T06:59:53;19.48;;;8.80;;
78148;SDS011;67396;42.664;23.382;2023-10-31T07:02:19;19.67;;;8.93;;
78148;SDS011;67396;42.664;23.382;2023-10-31T07:04:45;22.20;;;10.27;;
78148;SDS011;67396;42.664;23.382;2023-10-31T07:07:10;22.23;;;10.18;;
78148;SDS011;67396;42.664;23.382;2023-10-31T07:09:35;19.52;;;10.30;;
78148;SDS011;67396;42.664;23.382;2023-10-31T07:12:01;19.33;;;10.48;;
78148;SDS011;67396;42.664;23.382;2023-10-31T07:14:27;16.45;;;9.73;;
78148;SDS011;67396;42.664;23.382;2023-10-31T07:16:52;16.48;;;8.35;;
78148;SDS011;67396;42.664;23.382;2023-10-31T07:19:17;16.55;;;8.35;;
78148;SDS011;67396;42.664;23.382;2023-10-31T07:21:43;22.35;;;8.43;;
78148;SDS011;67396;42.664;23.382;2023-10-31T07:24:08;6.35;;;4.65;;
78148;SDS011;67396;42.664;23.382;2023-10-31T07:26:34;5.72;;;3.65;;
78148;SDS011;67396;42.664;23.382;2023-10-31T07:29:00;10.75;;;3.80;;
78148;SDS011;67396;42.664;23.382;2023-10-31T07:31:26;6.55;;;3.33;;
78148;SDS011;67396;42.664;23.382;2023-10-31T07:33:51;10.45;;;4.25;;
78148;SDS011;67396;42.664;23.382;2023-10-31T07:36:17;11.65;;;3.42;;
78148;SDS011;67396;42.664;23.382;2023-10-31T07:38:42;13.82;;;4.60;;
78148;SDS011;67396;42.664;23.382;2023-10-31T07:41:08;12.40;;;4.07;;
78148;SDS011;67396;42.664;23.382;2023-10-31T07:43:33;7.25;;;3.28;;
78148;SDS011;67396;42.664;23.382;2023-10-31T07:45:58;7.75;;;4.03;;
78148;SDS011;67396;42.664;23.382;2023-10-31T07:48:24;9.35;;;4.20;;
78148;SDS011;67396;42.664;23.382;2023-10-31T07:50:49;7.75;;;3.63;;
78148;SDS011;67396;42.664;23.382;2023-10-31T07:53:15;13.90;;;4.20;;
78148;SDS011;67396;42.664;23.382;2023-10-31T07:55:40;10.43;;;4.15;;
78148;SDS011;67396;42.664;23.382;2023-10-31T07:58:06;10.43;;;4.30;;
78148;SDS011;67396;42.664;23.382;2023-10-31T08:00:31;9.48;;;4.03;;
78148;SDS011;67396;42.664;23.382;2023-10-31T08:02:58;15.82;;;4.63;;
78148;SDS011;67396;42.664;23.382;2023-10-31T08:05:23;8.85;;;4.15;;
78148;SDS011;67396;42.664;23.382;2023-10-31T08:07:49;11.73;;;5.20;;
78148;SDS011;67396;42.664;23.382;2023-10-31T08:10:14;12.93;;;4.22;;
78148;SDS011;67396;42.664;23.382;2023-10-31T08:12:40;9.75;;;4.53;;
78148;SDS011;67396;42.664;23.382;2023-10-31T08:15:05;15.38;;;5.22;;
78148;SDS011;67396;42.664;23.382;2023-10-31T08:17:31;9.88;;;4.85;;
78148;SDS011;67396;42.664;23.382;2023-10-31T08:19:57;9.15;;;5.07;;
78148;SDS011;67396;42.664;23.382;2023-10-31T08:22:22;11.45;;;5.00;;
78148;SDS011;67396;42.664;23.382;2023-10-31T08:24:47;10.98;;;5.00;;
78148;SDS011;67396;42.664;23.382;2023-10-31T08:27:13;11.45;;;5.30;;
78148;SDS011;67396;42.664;23.382;2023-10-31T08:29:41;8.15;;;5.45;;
78148;SDS011;67396;42.664;23.382;2023-10-31T08:32:10;10.07;;;4.63;;
78148;SDS011;67396;42.664;23.382;2023-10-31T08:34:35;12.15;;;5.07;;
78148;SDS011;67396;42.664;23.382;2023-10-31T08:37:01;35.17;;;7.43;;
78148;SDS011;67396;42.664;23.382;2023-10-31T08:39:29;13.95;;;4.97;;
78148;SDS011;67396;42.664;23.382;2023-10-31T08:41:56;6.22;;;3.90;;
78148;SDS011;67396;42.664;23.382;2023-10-31T08:44:25;8.38;;;3.58;;
78148;SDS011;67396;42.664;23.382;2023-10-31T08:46:50;14.38;;;5.43;;
78148;SDS011;67396;42.664;23.382;2023-10-31T08:49:16;7.47;;;4.18;;
78148;SDS011;67396;42.664;23.382;2023-10-31T08:51:42;9.35;;;3.70;;
78148;SDS011;67396;42.664;23.382;2023-10-31T08:54:09;8.55;;;3.30;;
78148;SDS011;67396;42.664;23.382;2023-10-31T08:56:35;8.93;;;4.18;;
78148;SDS011;67396;42.664;23.382;2023-10-31T08:59:01;9.20;;;4.15;;
78148;SDS011;67396;42.664;23.382;2023-10-31T09:01:26;9.27;;;4.70;;
78148;SDS011;67396;42.664;23.382;2023-10-31T09:03:54;13.15;;;5.07;;
78148;SDS011;67396;42.664;23.382;2023-10-31T09:06:20;10.70;;;5.97;;
78148;SDS011;67396;42.664;23.382;2023-10-31T09:08:46;18.17;;;6.00;;
78148;SDS011;67396;42.664;23.382;2023-10-31T09:11:12;15.50;;;6.30;;
78148;SDS011;67396;42.664;23.382;2023-10-31T09:13:37;12.57;;;5.97;;
78148;SDS011;67396;42.664;23.382;2023-10-31T09:16:03;13.38;;;6.68;;
78148;SDS011;67396;42.664;23.382;2023-10-31T09:18:28;10.02;;;5.53;;
78148;SDS011;67396;42.664;23.382;2023-10-31T09:20:54;14.07;;;5.45;;
78148;SDS011;67396;42.664;23.382;2023-10-31T09:23:20;14.40;;;6.22;;
78148;SDS011;67396;42.664;23.382;2023-10-31T09:25:46;15.27;;;5.88;;
78148;SDS011;67396;42.664;23.382;2023-10-31T09:28:11;11.77;;;5.43;;
78148;SDS011;67396;42.664;23.382;2023-10-31T09:30:37;21.25;;;6.72;;
78148;SDS011;67396;42.664;23.382;2023-10-31T09:33:02;12.73;;;5.68;;
78148;SDS011;67396;42.664;23.382;2023-10-31T09:35:28;19.35;;;8.55;;
78148;SDS011;67396;42.664;23.382;2023-10-31T09:37:54;22.40;;;7.28;;
78148;SDS011;67396;42.664;23.382;2023-10-31T09:40:21;14.68;;;5.72;;
78148;SDS011;67396;42.664;23.382;2023-10-31T09:42:47;16.77;;;5.88;;
78148;SDS011;67396;42.664;23.382;2023-10-31T09:45:14;17.90;;;6.53;;
78148;SDS011;67396;42.664;23.382;2023-10-31T09:47:40;15.45;;;6.00;;
78148;SDS011;67396;42.664;23.382;2023-10-31T09:50:07;20.33;;;7.70;;
78148;SDS011;67396;42.664;23.382;2023-10-31T09:52:35;14.52;;;7.28;;
78148;SDS011;67396;42.664;23.382;2023-10-31T09:55:01;12.23;;;6.30;;
78148;SDS011;67396;42.664;23.382;2023-10-31T09:57:28;9.35;;;5.70;;
78148;SDS011;67396;42.664;23.382;2023-10-31T09:59:54;12.25;;;5.63;;
78148;SDS011;67396;42.664;23.382;2023-10-31T10:02:19;16.35;;;6.15;;
78148;SDS011;67396;42.664;23.382;2023-10-31T10:04:45;21.42;;;5.80;;
78148;SDS011;67396;42.664;23.382;2023-10-31T10:07:15;18.48;;;6.60;;
78148;SDS011;67396;42.664;23.382;2023-10-31T10:09:42;19.10;;;6.22;;
78148;SDS011;67396;42.664;23.382;2023-10-31T10:12:08;12.43;;;5.28;;
78148;SDS011;67396;42.664;23.382;2023-10-31T10:14:38;12.10;;;5.35;;
78148;SDS011;67396;42.664;23.382;2023-10-31T10:17:13;12.55;;;5.95;;
78148;SDS011;67396;42.664;23.382;2023-10-31T10:19:43;11.52;;;4.30;;
78148;SDS011;67396;42.664;23.382;2023-10-31T10:22:09;19.80;;;5.32;;
78148;SDS011;67396;42.664;23.382;2023-10-31T10:24:35;11.18;;;4.22;;
78148;SDS011;67396;42.664;23.382;2023-10-31T10:27:04;11.20;;;4.05;;
78148;SDS011;67396;42.664;23.382;2023-10-31T10:29:29;8.23;;;4.38;;
78148;SDS011;67396;42.664;23.382;2023-10-31T10:31:55;14.10;;;4.53;;
78148;SDS011;67396;42.664;23.382;2023-10-31T10:34:20;11.93;;;6.00;;
78148;SDS011;67396;42.664;23.382;2023-10-31T10:36:48;16.05;;;4.00;;
78148;SDS011;67396;42.664;23.382;2023-10-31T10:39:18;17.58;;;4.40;;
78148;SDS011;67396;42.664;23.382;2023-10-31T10:41:47;12.55;;;4.85;;
78148;SDS011;67396;42.664;23.382;2023-10-31T10:44:23;25.42;;;5.82;;
78148;SDS011;67396;42.664;23.382;2023-10-31T10:46:57;8.57;;;3.95;;
78148;SDS011;67396;42.664;23.382;2023-10-31T10:49:26;14.85;;;4.55;;
78148;SDS011;67396;42.664;23.382;2023-10-31T10:51:52;13.10;;;3.97;;
78148;SDS011;67396;42.664;23.382;2023-10-31T10:54:29;11.82;;;4.53;;
78148;SDS011;67396;42.664;23.382;2023-10-31T10:56:59;11.52;;;3.78;;
78148;SDS011;67396;42.664;23.382;2023-10-31T10:59:43;14.00;;;4.72;;
78148;SDS011;67396;42.664;23.382;2023-10-31T11:02:17;7.38;;;4.18;;
78148;SDS011;67396;42.664;23.382;2023-10-31T11:04:46;10.40;;;3.85;;
78148;SDS011;67396;42.664;23.382;2023-10-31T11:07:13;9.13;;;3.30;;
78148;SDS011;67396;42.664;23.382;2023-10-31T11:09:42;14.68;;;4.22;;
78148;SDS011;67396;42.664;23.382;2023-10-31T11:12:09;12.65;;;3.70;;
78148;SDS011;67396;42.664;23.382;2023-10-31T11:14:35;12.77;;;3.33;;
78148;SDS011;67396;42.664;23.382;2023-10-31T11:17:18;9.65;;;3.20;;
78148;SDS011;67396;42.664;23.382;2023-10-31T11:19:50;6.50;;;2.83;;
78148;SDS011;67396;42.664;23.382;2023-10-31T11:22:17;9.63;;;3.63;;
78148;SDS011;67396;42.664;23.382;2023-10-31T11:24:43;6.90;;;2.88;;
78148;SDS011;67396;42.664;23.382;2023-10-31T11:27:09;15.07;;;4.82;;
78148;SDS011;67396;42.664;23.382;2023-10-31T11:29:36;10.55;;;3.03;;
78148;SDS011;67396;42.664;23.382;2023-10-31T11:32:02;8.32;;;3.55;;
78148;SDS011;67396;42.664;23.382;2023-10-31T11:34:28;8.32;;;2.83;;
78148;SDS011;67396;42.664;23.382;2023-10-31T11:48:07;7.80;;;4.18;;
78148;SDS011;67396;42.664;23.382;2023-10-31T11:50:35;8.65;;;2.97;;
78148;SDS011;67396;42.664;23.382;2023-10-31T11:53:02;10.38;;;3.47;;
78148;SDS011;67396;42.664;23.382;2023-10-31T11:55:41;11.88;;;3.13;;
78148;SDS011;67396;42.664;23.382;2023-10-31T11:58:15;12.45;;;3.58;;
78148;SDS011;67396;42.664;23.382;2023-10-31T12:00:49;11.90;;;3.55;;
78148;SDS011;67396;42.664;23.382;2023-10-31T12:03:16;12.05;;;3.38;;
78148;SDS011;67396;42.664;23.382;2023-10-31T12:05:56;12.02;;;3.00;;
78148;SDS011;67396;42.664;23.382;2023-10-31T12:08:32;13.15;;;3.92;;
78148;SDS011;67396;42.664;23.382;2023-10-31T12:13:34;7.93;;;2.88;;
78148;SDS011;67396;42.664;23.382;2023-10-31T12:16:00;7.60;;;3.10;;
78148;SDS011;67396;42.664;23.382;2023-10-31T12:18:27;17.02;;;3.83;;
78148;SDS011;67396;42.664;23.382;2023-10-31T12:20:53;7.65;;;3.08;;
78148;SDS011;67396;42.664;23.382;2023-10-31T12:23:19;6.78;;;4.57;;
78148;SDS011;67396;42.664;23.382;2023-10-31T12:25:50;8.07;;;3.45;;
78148;SDS011;67396;42.664;23.382;2023-10-31T12:28:17;7.05;;;4.18;;
78148;SDS011;67396;42.664;23.382;2023-10-31T12:30:47;10.60;;;3.75;;
78148;SDS011;67396;42.664;23.382;2023-10-31T12:33:18;15.13;;;3.67;;
78148;SDS011;67396;42.664;23.382;2023-10-31T12:35:43;9.52;;;3.78;;
78148;SDS011;67396;42.664;23.382;2023-10-31T12:38:14;12.50;;;3.65;;
78148;SDS011;67396;42.664;23.382;2023-10-31T12:40:40;8.73;;;4.78;;
78148;SDS011;67396;42.664;23.382;2023-10-31T12:43:09;11.73;;;3.45;;
78148;SDS011;67396;42.664;23.382;2023-10-31T12:45:35;6.97;;;3.35;;
78148;SDS011;67396;42.664;23.382;2023-10-31T12:48:02;14.25;;;3.45;;
78148;SDS011;67396;42.664;23.382;2023-10-31T12:50:32;7.78;;;3.55;;
78148;SDS011;67396;42.664;23.382;2023-10-31T12:53:00;8.70;;;2.80;;
78148;SDS011;67396;42.664;23.382;2023-10-31T12:55:29;8.50;;;3.25;;
78148;SDS011;67396;42.664;23.382;2023-10-31T12:57:56;9.15;;;3.10;;
78148;SDS011;67396;42.664;23.382;2023-10-31T13:00:25;12.18;;;3.58;;
78148;SDS011;67396;42.664;23.382;2023-10-31T13:03:03;8.23;;;3.53;;
78148;SDS011;67396;42.664;23.382;2023-10-31T13:05:29;7.43;;;2.85;;
78148;SDS011;67396;42.664;23.382;2023-10-31T13:07:55;9.73;;;3.33;;
78148;SDS011;67396;42.664;23.382;2023-10-31T13:10:25;7.95;;;3.30;;
78148;SDS011;67396;42.664;23.382;2023-10-31T13:12:52;8.65;;;3.25;;
78148;SDS011;67396;42.664;23.382;2023-10-31T13:15:18;10.10;;;3.20;;
78148;SDS011;67396;42.664;23.382;2023-10-31T13:17:45;6.00;;;3.10;;
78148;SDS011;67396;42.664;23.382;2023-10-31T13:20:12;8.23;;;3.67;;
78148;SDS011;67396;42.664;23.382;2023-10-31T13:22:38;11.10;;;3.33;;
78148;SDS011;67396;42.664;23.382;2023-10-31T13:25:06;10.18;;;3.40;;
78148;SDS011;67396;42.664;23.382;2023-10-31T13:27:39;11.60;;;3.97;;
78148;SDS011;67396;42.664;23.382;2023-10-31T13:30:07;20.25;;;6.22;;
78148;SDS011;67396;42.664;23.382;2023-10-31T13:32:42;7.10;;;3.10;;
78148;SDS011;67396;42.664;23.382;2023-10-31T13:35:08;10.30;;;3.67;;
78148;SDS011;67396;42.664;23.382;2023-10-31T13:37:34;9.85;;;3.72;;
78148;SDS011;67396;42.664;23.382;2023-10-31T13:40:00;9.00;;;3.88;;
78148;SDS011;67396;42.664;23.382;2023-10-31T13:42:26;8.90;;;3.55;;
78148;SDS011;67396;42.664;23.382;2023-10-31T13:44:53;7.43;;;3.20;;
78148;SDS011;67396;42.664;23.382;2023-10-31T13:47:19;8.80;;;3.63;;
78148;SDS011;67396;42.664;23.382;2023-10-31T13:49:44;10.68;;;4.10;;
78148;SDS011;67396;42.664;23.382;2023-10-31T13:52:10;9.57;;;3.80;;
78148;SDS011;67396;42.664;23.382;2023-10-31T13:54:35;6.50;;;3.83;;
78148;SDS011;67396;42.664;23.382;2023-10-31T13:57:01;8.57;;;3.38;;
78148;SDS011;67396;42.664;23.382;2023-10-31T13:59:26;10.40;;;3.95;;
78148;SDS011;67396;42.664;23.382;2023-10-31T14:01:52;12.10;;;3.88;;
78148;SDS011;67396;42.664;23.382;2023-10-31T14:04:18;13.15;;;4.03;;
78148;SDS011;67396;42.664;23.382;2023-10-31T14:06:44;8.18;;;3.95;;
78148;SDS011;67396;42.664;23.382;2023-10-31T14:09:10;11.25;;;4.10;;
78148;SDS011;67396;42.664;23.382;2023-10-31T14:11:37;10.57;;;4.07;;
78148;SDS011;67396;42.664;23.382;2023-10-31T14:14:03;13.25;;;6.03;;
78148;SDS011;67396;42.664;23.382;2023-10-31T14:16:35;10.50;;;4.20;;
78148;SDS011;67396;42.664;23.382;2023-10-31T14:19:04;7.60;;;3.45;;
78148;SDS011;67396;42.664;23.382;2023-10-31T14:21:31;10.32;;;4.22;;
78148;SDS011;67396;42.664;23.382;2023-10-31T14:23:57;10.48;;;4.72;;
78148;SDS011;67396;42.664;23.382;2023-10-31T14:26:22;9.38;;;3.67;;
78148;SDS011;67396;42.664;23.382;2023-10-31T14:28:48;10.63;;;3.88;;
78148;SDS011;67396;42.664;23.382;2023-10-31T14:31:15;12.13;;;4.22;;
78148;SDS011;67396;42.664;23.382;2023-10-31T14:33:41;11.02;;;4.97;;
78148;SDS011;67396;42.664;23.382;2023-10-31T14:36:08;11.85;;;4.25;;